Time;durP1;ratioP1;P1;durP2;ratioP2;P2;SDS_P1;SDS_P2;PMS_P1;PMS_P2;Temp;Humidity;BMP_temperature;BMP_pressure;BME280_temperature;BME280_humidity;BME280_pressure;Samples;Min_cycle;Max_cycle;Signal;HPM_P1;HPM_P2
2023/09/19 00:00:57;;;;;;;9.30;4.90;;;;;;;18.20;56.24;101441.29;107560;1254;110305;-64
2023/09/19 00:03:38;;;;;;;9.00;5.00;;;;;;;18.18;56.70;101437.51;107592;1251;109869;-63
2023/09/19 00:06:08;;;;;;;13.50;5.20;;;;;;;18.16;56.83;101436.64;107628;1251;108555;-63
2023/09/19 00:08:37;;;;;;;13.50;5.00;;;;;;;18.14;56.98;101430.83;107612;1255;98423;-64
2023/09/19 00:11:06;;;;;;;6.90;5.20;;;;;;;18.13;56.92;101428.92;107558;1254;97678;-62
2023/09/19 00:13:35;;;;;;;11.80;5.50;;;;;;;18.13;57.14;101430.97;107570;1251;111558;-64
2023/09/19 00:16:11;;;;;;;10.70;5.80;;;;;;;18.12;57.11;101432.73;107593;1254;109654;-63
2023/09/19 00:18:40;;;;;;;7.40;5.00;;;;;;;18.10;57.38;101433.25;107547;1253;106628;-63
2023/09/19 00:21:10;;;;;;;9.90;4.90;;;;;;;18.10;57.81;101436.31;107571;1254;97845;-63
2023/09/19 00:23:40;;;;;;;8.60;4.80;;;;;;;18.10;57.65;101431.48;107624;1253;97932;-63
2023/09/19 00:26:09;;;;;;;16.10;5.50;;;;;;;18.09;57.28;101434.67;107631;1254;112038;-63
2023/09/19 00:28:40;;;;;;;9.10;4.60;;;;;;;18.08;57.26;101430.25;107580;1253;110266;-64
2023/09/19 00:31:08;;;;;;;8.80;5.20;;;;;;;18.08;57.61;101432.80;107649;1252;106999;-63
2023/09/19 00:33:37;;;;;;;8.90;5.50;;;;;;;18.08;57.58;101432.02;107580;1253;97688;-64
2023/09/19 00:36:06;;;;;;;7.00;5.10;;;;;;;18.08;57.71;101425.32;107603;1254;97844;-63
2023/09/19 00:38:34;;;;;;;8.30;5.70;;;;;;;18.08;57.78;101425.86;107564;1253;110890;-63
2023/09/19 00:41:02;;;;;;;5.50;4.80;;;;;;;18.09;57.73;101423.82;107578;1253;108819;-64
2023/09/19 00:43:34;;;;;;;15.50;4.70;;;;;;;18.07;57.89;101415.48;107570;1251;107692;-63
2023/09/19 00:46:06;;;;;;;9.40;5.00;;;;;;;18.06;57.87;101415.35;107601;1254;97937;-63
2023/09/19 00:48:43;;;;;;;8.80;5.30;;;;;;;18.07;58.07;101415.95;107608;1254;97800;-63
2023/09/19 00:51:13;;;;;;;10.50;5.00;;;;;;;18.08;57.81;101411.71;107601;1251;112098;-64
2023/09/19 00:53:46;;;;;;;8.10;4.40;;;;;;;18.09;57.86;101410.55;107478;1256;108981;-64
2023/09/19 00:56:18;;;;;;;8.40;5.10;;;;;;;18.10;57.75;101410.92;107580;1254;106182;-63
2023/09/19 00:58:48;;;;;;;13.00;4.70;;;;;;;18.12;57.75;101414.01;107601;1252;97939;-62
2023/09/19 01:01:17;;;;;;;10.20;4.90;;;;;;;18.12;57.70;101413.46;107678;1252;97749;-64
2023/09/19 01:03:46;;;;;;;12.20;5.10;;;;;;;18.11;57.44;101411.02;107638;1253;112301;-63
2023/09/19 01:06:14;;;;;;;6.60;4.40;;;;;;;18.10;57.34;101411.33;107590;1254;108729;-63
2023/09/19 01:08:43;;;;;;;8.20;4.90;;;;;;;18.09;57.32;101411.58;107511;1254;108124;-63
2023/09/19 01:11:35;;;;;;;7.50;4.20;;;;;;;18.08;57.16;101408.77;107561;1253;97819;-63
2023/09/19 01:14:13;;;;;;;6.50;4.60;;;;;;;18.07;57.09;101403.16;107623;1251;98501;-64
2023/09/19 01:16:47;;;;;;;8.90;4.90;;;;;;;18.04;57.10;101397.96;107583;1254;112718;-63
2023/09/19 01:19:27;;;;;;;6.40;4.90;;;;;;;18.03;57.37;101393.77;107616;1254;109795;-63
2023/09/19 01:21:56;;;;;;;7.40;4.80;;;;;;;18.01;57.22;101387.48;107572;1254;108342;-63
2023/09/19 01:24:43;;;;;;;8.40;4.90;;;;;;;17.98;57.49;101386.29;107531;1252;97831;-63
2023/09/19 01:27:43;;;;;;;7.10;4.70;;;;;;;17.96;57.35;101381.45;107586;1254;97704;-62
2023/09/19 01:30:15;;;;;;;8.00;4.60;;;;;;;17.95;57.59;101376.67;107449;1254;112072;-64
2023/09/19 01:32:46;;;;;;;11.10;4.40;;;;;;;17.94;57.29;101373.66;107658;1254;109958;-64
2023/09/19 01:35:15;;;;;;;9.40;4.50;;;;;;;17.92;57.25;101368.57;107532;1255;108466;-64
2023/09/19 01:37:43;;;;;;;8.40;5.20;;;;;;;17.92;57.23;101369.68;107583;1252;97893;-63
2023/09/19 01:40:19;;;;;;;9.50;4.20;;;;;;;17.90;57.36;101367.91;107599;1253;97851;-64
2023/09/19 01:43:08;;;;;;;7.60;4.80;;;;;;;17.89;57.35;101371.45;107579;1252;112001;-64
2023/09/19 01:46:08;;;;;;;10.00;4.40;;;;;;;17.88;57.17;101371.02;107605;1254;109728;-64
2023/09/19 01:49:09;;;;;;;13.30;4.80;;;;;;;17.86;57.28;101377.27;107599;1253;108615;-64
2023/09/19 01:51:47;;;;;;;10.00;4.60;;;;;;;17.84;57.16;101372.40;107621;1253;97893;-63
2023/09/19 01:54:22;;;;;;;11.80;4.80;;;;;;;17.82;57.38;101372.92;107555;1254;98373;-64
2023/09/19 01:57:14;;;;;;;12.00;5.30;;;;;;;17.81;57.31;101362.67;107601;1254;112526;-64
2023/09/19 01:59:49;;;;;;;8.10;4.70;;;;;;;17.79;57.26;101360.73;107577;1255;108565;-63
2023/09/19 02:02:17;;;;;;;9.30;4.70;;;;;;;17.79;57.24;101357.94;107598;1253;107498;-62
2023/09/19 02:04:46;;;;;;;7.80;4.80;;;;;;;17.76;56.89;101357.98;107611;1253;97749;-64
2023/09/19 02:07:15;;;;;;;7.80;4.60;;;;;;;17.74;56.73;101361.20;107606;1254;97842;-64
2023/09/19 02:09:43;;;;;;;6.80;4.30;;;;;;;17.70;56.75;101355.21;107568;1253;111818;-64
2023/09/19 02:12:11;;;;;;;8.40;5.00;;;;;;;17.67;56.65;101352.27;107558;1254;110543;-64
2023/09/19 02:14:39;;;;;;;7.70;4.50;;;;;;;17.64;56.55;101355.66;107561;1253;109465;-64
2023/09/19 02:17:11;;;;;;;8.80;5.20;;;;;;;17.62;56.59;101353.02;107513;1256;97937;-64
2023/09/19 02:19:40;;;;;;;8.80;4.80;;;;;;;17.60;56.41;101352.77;107537;1253;97825;-64
2023/09/19 02:22:10;;;;;;;16.00;6.70;;;;;;;17.57;56.73;101347.79;107601;1253;112142;-63
2023/09/19 02:24:38;;;;;;;9.90;5.90;;;;;;;17.49;56.94;101344.45;107552;1256;110088;-64
2023/09/19 02:27:07;;;;;;;16.40;5.60;;;;;;;17.34;57.48;101336.61;107541;1253;107051;-64
2023/09/19 02:29:36;;;;;;;9.60;5.30;;;;;;;17.20;57.51;101333.66;107561;1254;97816;-64
2023/09/19 02:32:06;;;;;;;15.50;6.70;;;;;;;17.10;57.77;101333.33;107625;1252;97824;-63
2023/09/19 02:34:36;;;;;;;14.30;6.40;;;;;;;17.00;58.14;101325.45;107626;1254;111677;-63
2023/09/19 02:37:06;;;;;;;12.80;7.00;;;;;;;16.89;58.24;101316.04;107582;1254;109727;-65
2023/09/19 02:39:35;;;;;;;9.40;6.50;;;;;;;16.81;58.37;101319.27;107575;1253;107940;-63
2023/09/19 02:42:06;;;;;;;10.60;6.10;;;;;;;16.74;58.60;101314.79;107603;1254;97909;-64
2023/09/19 02:44:35;;;;;;;10.20;6.20;;;;;;;16.68;58.85;101318.48;107572;1256;97850;-63
2023/09/19 02:47:04;;;;;;;10.60;6.50;;;;;;;16.62;59.05;101318.61;107564;1253;111326;-63
2023/09/19 02:49:33;;;;;;;9.30;6.00;;;;;;;16.58;59.37;101322.77;107538;1254;109897;-63
2023/09/19 02:52:02;;;;;;;12.20;5.50;;;;;;;16.55;59.37;101321.76;107530;1254;107431;-62
2023/09/19 02:54:31;;;;;;;15.40;6.20;;;;;;;16.53;59.65;101321.32;107598;1253;97954;-64
2023/09/19 02:56:59;;;;;;;9.40;5.50;;;;;;;16.50;59.91;101318.69;107600;1253;98018;-64
2023/09/19 02:59:29;;;;;;;9.60;5.80;;;;;;;16.46;60.13;101319.89;107492;1254;112098;-63
2023/09/19 03:01:58;;;;;;;13.10;5.30;;;;;;;16.43;60.18;101324.77;107520;1254;109837;-64
2023/09/19 03:04:28;;;;;;;12.00;5.60;;;;;;;16.40;60.21;101329.06;107590;1254;107020;-64
2023/09/19 03:07:00;;;;;;;8.70;6.00;;;;;;;16.38;60.25;101327.05;107579;1253;97835;-63
2023/09/19 03:09:29;;;;;;;10.20;5.90;;;;;;;16.35;60.36;101323.76;107593;1253;97821;-64
2023/09/19 03:11:59;;;;;;;8.10;5.70;;;;;;;16.30;60.43;101317.71;107581;1254;112288;-63
2023/09/19 03:14:30;;;;;;;12.60;6.90;;;;;;;16.27;60.55;101318.80;107625;1254;110238;-63
2023/09/19 03:16:59;;;;;;;20.80;6.80;;;;;;;16.21;60.99;101317.09;107555;1254;108542;-63
2023/09/19 03:19:29;;;;;;;11.40;6.00;;;;;;;16.14;60.89;101320.14;107581;1253;97922;-63
2023/09/19 03:21:58;;;;;;;12.30;6.40;;;;;;;16.10;61.05;101323.81;107557;1254;97736;-63
2023/09/19 03:24:26;;;;;;;16.70;7.50;;;;;;;16.08;61.24;101328.89;107616;1251;112057;-64
2023/09/19 03:26:54;;;;;;;16.20;6.60;;;;;;;16.04;61.54;101322.59;107602;1254;109885;-64
2023/09/19 03:29:23;;;;;;;17.30;7.50;;;;;;;15.98;61.59;101322.17;107580;1254;110197;-64
2023/09/19 03:31:54;;;;;;;32.80;7.30;;;;;;;15.93;61.70;101319.02;107462;1254;97828;-65
2023/09/19 03:34:22;;;;;;;14.10;6.90;;;;;;;15.90;61.67;101320.38;107580;1254;97889;-63
2023/09/19 03:36:51;;;;;;;15.40;6.60;;;;;;;15.87;61.94;101318.05;107599;1254;111045;-63
2023/09/19 03:39:20;;;;;;;17.40;6.80;;;;;;;15.82;61.85;101318.29;107558;1254;109869;-64
2023/09/19 03:41:49;;;;;;;15.60;7.00;;;;;;;15.78;62.49;101314.86;107506;1255;107705;-63
2023/09/19 03:44:18;;;;;;;16.20;7.00;;;;;;;15.68;62.06;101312.82;107523;1254;97902;-63
2023/09/19 03:46:46;;;;;;;18.60;6.50;;;;;;;15.62;62.29;101317.52;107542;1254;97729;-63
2023/09/19 03:49:15;;;;;;;14.50;6.20;;;;;;;15.61;62.43;101323.27;107582;1254;110633;-64
2023/09/19 03:51:44;;;;;;;12.50;6.70;;;;;;;15.61;62.77;101319.08;107630;1254;109715;-64
2023/09/19 03:54:12;;;;;;;15.50;6.80;;;;;;;15.58;62.94;101323.20;107492;1254;108426;-65
2023/09/19 03:56:40;;;;;;;15.60;6.90;;;;;;;15.54;63.15;101325.48;107510;1254;97934;-64
2023/09/19 03:59:09;;;;;;;19.40;6.50;;;;;;;15.51;63.44;101324.48;107556;1254;97716;-64
2023/09/19 04:01:39;;;;;;;20.00;6.50;;;;;;;15.50;63.51;101324.77;107461;1253;111611;-65
2023/09/19 04:04:10;;;;;;;15.50;6.90;;;;;;;15.47;63.77;101330.14;107560;1254;108129;-64
2023/09/19 04:06:38;;;;;;;22.70;6.60;;;;;;;15.44;63.64;101325.52;107530;1256;109149;-64
2023/09/19 04:09:07;;;;;;;13.70;7.00;;;;;;;15.45;63.68;101325.77;107531;1253;97928;-63
2023/09/19 04:11:36;;;;;;;19.90;10.90;;;;;;;15.42;65.31;101321.42;107502;1254;98367;-63
2023/09/19 04:14:04;;;;;;;16.10;6.90;;;;;;;15.37;64.91;101315.98;107528;1254;111453;-63
2023/09/19 04:16:33;;;;;;;30.90;7.60;;;;;;;15.32;65.32;101312.98;107597;1254;109303;-63
2023/09/19 04:19:03;;;;;;;22.30;8.20;;;;;;;15.30;65.12;101302.95;107589;1254;107852;-64
2023/09/19 04:21:31;;;;;;;22.00;7.70;;;;;;;15.30;64.95;101296.89;107639;1253;97759;-65
2023/09/19 04:24:00;;;;;;;17.60;8.10;;;;;;;15.32;64.95;101294.20;107629;1252;98368;-64
2023/09/19 04:26:28;;;;;;;32.50;9.40;;;;;;;15.35;64.75;101295.41;107606;1254;111857;-64
2023/09/19 04:28:57;;;;;;;24.00;9.90;;;;;;;15.37;64.73;101296.43;107532;1254;109702;-63
2023/09/19 04:31:25;;;;;;;21.30;8.10;;;;;;;15.40;64.63;101297.41;107586;1254;108394;-64
2023/09/19 04:33:54;;;;;;;38.90;13.40;;;;;;;15.42;64.77;101305.87;107565;1254;97863;-64
2023/09/19 04:36:23;;;;;;;22.20;7.60;;;;;;;15.45;64.64;101311.58;107643;1254;97851;-64
2023/09/19 04:39:07;;;;;;;27.10;6.40;;;;;;;15.49;65.39;101312.02;107609;1253;110688;-62
2023/09/19 04:41:36;;;;;;;13.90;6.50;;;;;;;15.57;65.47;101308.17;107587;1253;110434;-63
2023/09/19 04:44:05;;;;;;;14.90;5.60;;;;;;;15.66;65.58;101309.75;107596;1253;108885;-65
2023/09/19 04:46:34;;;;;;;14.40;6.70;;;;;;;15.77;65.79;101304.34;107616;1254;97920;-64
2023/09/19 04:49:03;;;;;;;10.60;6.20;;;;;;;15.87;65.75;101305.90;107604;1254;97812;-64
2023/09/19 04:51:34;;;;;;;18.50;6.40;;;;;;;15.98;65.68;101307.51;107554;1254;113120;-63
2023/09/19 04:54:03;;;;;;;18.60;5.50;;;;;;;16.10;65.58;101306.11;107547;1254;110072;-63
2023/09/19 04:56:32;;;;;;;15.00;5.70;;;;;;;16.22;65.60;101302.63;107525;1254;107853;-63
2023/09/19 04:59:00;;;;;;;15.30;5.70;;;;;;;16.35;65.72;101308.73;107545;1254;97884;-64
2023/09/19 05:01:28;;;;;;;7.40;5.60;;;;;;;16.47;65.59;101308.02;107514;1253;97928;-63
2023/09/19 05:03:57;;;;;;;7.80;5.20;;;;;;;16.60;65.72;101300.01;107603;1251;112234;-64
2023/09/19 05:06:26;;;;;;;14.70;5.40;;;;;;;16.70;65.56;101294.14;107581;1254;108704;-64
2023/09/19 05:08:55;;;;;;;12.20;5.50;;;;;;;16.80;65.61;101287.48;107601;1252;108071;-65
2023/09/19 05:11:24;;;;;;;9.90;5.60;;;;;;;16.89;65.27;101279.06;107542;1254;97806;-64
2023/09/19 05:13:52;;;;;;;10.80;5.50;;;;;;;17.00;65.07;101275.27;107617;1252;97784;-66
2023/09/19 05:16:21;;;;;;;14.80;5.60;;;;;;;17.10;64.84;101268.77;107557;1254;112182;-64
2023/09/19 05:18:50;;;;;;;8.10;5.40;;;;;;;17.16;64.63;101262.11;107584;1254;108291;-64
2023/09/19 05:21:19;;;;;;;12.10;4.60;;;;;;;17.22;64.51;101257.88;107556;1254;108122;-64
2023/09/19 05:23:47;;;;;;;17.10;5.60;;;;;;;17.28;64.40;101249.96;107596;1254;98020;-63
2023/09/19 05:26:16;;;;;;;11.50;4.40;;;;;;;17.33;64.20;101246.26;107567;1254;97746;-63
2023/09/19 05:28:45;;;;;;;10.40;5.00;;;;;;;17.41;64.26;101242.89;107492;1254;111469;-64
2023/09/19 05:31:15;;;;;;;16.40;6.00;;;;;;;17.49;63.96;101240.52;107582;1255;109699;-63
2023/09/19 05:33:44;;;;;;;21.90;5.40;;;;;;;17.59;63.68;101238.16;107562;1251;108137;-64
2023/09/19 05:36:12;;;;;;;13.70;5.50;;;;;;;17.69;63.49;101240.00;107504;1254;97858;-63
2023/09/19 05:38:42;;;;;;;9.00;5.70;;;;;;;17.79;63.22;101240.70;107371;1254;98395;-63
2023/09/19 05:41:13;;;;;;;13.00;5.20;;;;;;;17.88;63.18;101236.13;107433;1252;111855;-63
2023/09/19 05:43:42;;;;;;;10.00;5.20;;;;;;;17.95;62.88;101233.98;107450;1251;110290;-64
2023/09/19 05:46:11;;;;;;;11.40;5.50;;;;;;;18.04;62.49;101232.48;107491;1253;108371;-64
2023/09/19 05:48:41;;;;;;;11.70;4.50;;;;;;;18.14;62.10;101237.11;107541;1254;97825;-64
2023/09/19 05:51:10;;;;;;;7.60;5.00;;;;;;;18.24;61.91;101229.90;107595;1254;98421;-63
2023/09/19 05:53:38;;;;;;;12.20;5.50;;;;;;;18.33;61.63;101224.64;107558;1251;112118;-64
2023/09/19 05:56:07;;;;;;;8.50;4.70;;;;;;;18.40;61.50;101226.73;107573;1253;110020;-63
2023/09/19 05:58:35;;;;;;;14.20;5.40;;;;;;;18.48;61.16;101231.12;107483;1252;107222;-63
2023/09/19 06:01:03;;;;;;;14.40;5.10;;;;;;;18.57;60.94;101235.70;107526;1254;97866;-64
2023/09/19 06:03:32;;;;;;;10.50;5.60;;;;;;;18.66;60.60;101227.02;107522;1254;97812;-64
2023/09/19 06:06:00;;;;;;;18.20;5.10;;;;;;;18.75;60.21;101224.76;107540;1254;111366;-64
2023/09/19 06:08:30;;;;;;;12.80;5.30;;;;;;;18.83;59.48;101224.98;107543;1254;109939;-64
2023/09/19 06:10:59;;;;;;;10.10;4.50;;;;;;;18.89;58.22;101226.45;107552;1254;108076;-63
2023/09/19 06:13:28;;;;;;;11.10;4.10;;;;;;;18.94;57.15;101224.39;107542;1254;97849;-63
2023/09/19 06:15:56;;;;;;;11.20;4.60;;;;;;;18.99;56.28;101228.30;107553;1254;99630;-64
2023/09/19 06:18:26;;;;;;;13.20;3.90;;;;;;;19.05;55.22;101230.05;107563;1254;112138;-63
2023/09/19 06:20:55;;;;;;;11.60;4.50;;;;;;;19.09;53.92;101227.48;107611;1254;109359;-64
2023/09/19 06:23:24;;;;;;;10.00;3.70;;;;;;;19.13;54.14;101223.98;107488;1254;107093;-64
2023/09/19 06:25:53;;;;;;;10.50;4.00;;;;;;;19.17;53.62;101226.39;107460;1254;97829;-64
2023/09/19 06:28:25;;;;;;;5.90;4.00;;;;;;;19.22;53.61;101226.23;107561;1254;97835;-63
2023/09/19 06:30:57;;;;;;;10.30;3.70;;;;;;;19.27;53.39;101230.36;107564;1253;111555;-63
2023/09/19 06:33:26;;;;;;;6.90;3.30;;;;;;;19.34;52.82;101234.23;107523;1254;110229;-64
2023/09/19 06:35:59;;;;;;;8.30;4.00;;;;;;;19.39;52.53;101232.02;107513;1254;108879;-64
2023/09/19 06:38:28;;;;;;;7.80;3.40;;;;;;;19.46;52.01;101229.42;107511;1254;97824;-65
2023/09/19 06:40:57;;;;;;;10.00;4.00;;;;;;;19.52;51.65;101236.27;107519;1254;97706;-64
2023/09/19 06:43:25;;;;;;;12.50;4.10;;;;;;;19.59;51.39;101233.80;107559;1255;112235;-63
2023/09/19 06:45:54;;;;;;;12.80;3.60;;;;;;;19.65;51.43;101231.84;107564;1255;109185;-63
2023/09/19 06:48:25;;;;;;;5.40;3.00;;;;;;;19.71;50.97;101233.28;107548;1256;107565;-63
2023/09/19 06:50:55;;;;;;;7.00;3.80;;;;;;;19.78;49.53;101239.02;107595;1254;97834;-64
2023/09/19 06:53:23;;;;;;;6.60;3.20;;;;;;;19.86;49.24;101247.56;107489;1256;98520;-62
2023/09/19 06:55:51;;;;;;;10.30;3.20;;;;;;;19.93;48.89;101242.69;107554;1256;112061;-64
2023/09/19 06:58:20;;;;;;;6.70;3.40;;;;;;;20.01;48.37;101241.58;107521;1254;108694;-64
2023/09/19 07:00:50;;;;;;;7.70;3.30;;;;;;;20.10;47.98;101245.23;107408;1254;108633;-65
2023/09/19 07:03:21;;;;;;;18.50;3.00;;;;;;;20.17;47.87;101244.70;107494;1254;97839;-64
2023/09/19 07:05:49;;;;;;;10.00;4.00;;;;;;;20.25;47.69;101244.52;107506;1256;97745;-64
2023/09/19 07:08:19;;;;;;;12.20;3.70;;;;;;;20.32;47.71;101243.66;107588;1254;111908;-64
2023/09/19 07:10:48;;;;;;;10.10;3.90;;;;;;;20.40;47.68;101244.64;107537;1254;109168;-65
2023/09/19 07:13:17;;;;;;;8.90;3.20;;;;;;;20.47;47.30;101243.42;107535;1256;107058;-65
2023/09/19 07:15:49;;;;;;;13.10;3.50;;;;;;;20.56;47.46;101241.65;107490;1256;97842;-64
2023/09/19 07:18:19;;;;;;;11.60;3.10;;;;;;;20.66;46.75;101239.03;107523;1254;97823;-66
2023/09/19 07:20:49;;;;;;;10.00;3.10;;;;;;;20.75;46.51;101234.16;107577;1256;111233;-65
2023/09/19 07:23:22;;;;;;;9.70;3.40;;;;;;;20.85;46.67;101233.86;107575;1254;108965;-66
2023/09/19 07:25:51;;;;;;;16.50;3.40;;;;;;;21.00;45.48;101237.27;107509;1254;108871;-64
2023/09/19 07:28:20;;;;;;;11.80;3.60;;;;;;;21.13;45.74;101232.86;107513;1256;97974;-63
2023/09/19 07:30:49;;;;;;;7.60;2.80;;;;;;;21.29;45.20;101237.93;107525;1255;98369;-63
2023/09/19 07:33:18;;;;;;;9.80;3.90;;;;;;;21.44;44.96;101231.64;107512;1254;111895;-63
2023/09/19 07:35:47;;;;;;;16.20;3.80;;;;;;;21.59;44.56;101231.78;107535;1254;109156;-62
2023/09/19 07:38:16;;;;;;;17.70;3.10;;;;;;;21.74;43.85;101245.55;107428;1254;108557;-63
2023/09/19 07:40:45;;;;;;;6.00;2.80;;;;;;;21.86;43.58;101237.46;107516;1254;97846;-63
2023/09/19 07:43:13;;;;;;;20.20;3.10;;;;;;;21.96;42.96;101240.27;107517;1254;97927;-63
2023/09/19 07:45:42;;;;;;;14.70;3.10;;;;;;;22.07;42.49;101243.20;107468;1254;111715;-63
2023/09/19 07:48:15;;;;;;;20.30;2.60;;;;;;;22.14;42.36;101236.92;107527;1251;109830;-62
2023/09/19 07:50:43;;;;;;;17.90;2.70;;;;;;;22.22;41.61;101245.60;107562;1256;107151;-63
2023/09/19 07:53:13;;;;;;;7.50;2.40;;;;;;;22.32;40.28;101244.86;107396;1254;97960;-64
2023/09/19 07:55:42;;;;;;;5.30;2.90;;;;;;;22.35;40.15;101246.48;107596;1254;98459;-64
2023/09/19 07:58:10;;;;;;;9.60;2.80;;;;;;;22.41;40.14;101244.63;107451;1253;111898;-62
2023/09/19 08:00:38;;;;;;;5.00;2.50;;;;;;;22.50;40.02;101244.48;107583;1256;109685;-63
2023/09/19 08:03:08;;;;;;;6.20;2.10;;;;;;;22.59;39.67;101238.52;107536;1255;108482;-63
2023/09/19 08:05:45;;;;;;;10.80;2.60;;;;;;;22.68;39.33;101228.22;107539;1251;97908;-63
2023/09/19 08:08:14;;;;;;;9.90;2.40;;;;;;;22.81;38.61;101233.62;107494;1255;97818;-64
2023/09/19 08:10:45;;;;;;;9.90;2.40;;;;;;;22.90;38.38;101227.27;107458;1254;111599;-63
2023/09/19 08:13:17;;;;;;;11.90;2.50;;;;;;;23.00;38.19;101232.40;107538;1254;108659;-63
2023/09/19 08:15:45;;;;;;;11.10;2.80;;;;;;;23.03;38.34;101229.04;107554;1254;108259;-63
2023/09/19 08:18:15;;;;;;;11.50;2.60;;;;;;;23.09;38.35;101225.46;107539;1256;97844;-63
2023/09/19 08:20:50;;;;;;;13.50;2.70;;;;;;;23.18;38.09;101228.52;107534;1252;97940;-63
2023/09/19 08:23:21;;;;;;;9.00;2.10;;;;;;;23.25;37.33;101228.00;107537;1256;111927;-63
2023/09/19 08:25:49;;;;;;;11.60;2.30;;;;;;;23.35;37.40;101218.92;107507;1256;110407;-64
2023/09/19 08:28:22;;;;;;;10.60;3.20;;;;;;;23.51;37.16;101213.27;107519;1256;108223;-63
2023/09/19 08:30:51;;;;;;;10.50;3.00;;;;;;;23.66;36.70;101208.56;107493;1255;97893;-64
2023/09/19 08:33:19;;;;;;;13.20;3.10;;;;;;;23.81;37.15;101196.38;107586;1252;98408;-62
2023/09/19 08:35:47;;;;;;;19.20;3.10;;;;;;;24.01;36.22;101205.27;107521;1256;111831;-64
2023/09/19 08:38:16;;;;;;;14.70;2.60;;;;;;;24.20;36.08;101194.23;107491;1254;109707;-64
2023/09/19 08:40:45;;;;;;;5.20;2.70;;;;;;;24.39;35.93;101187.85;107473;1257;108546;-64
2023/09/19 08:43:13;;;;;;;11.70;2.70;;;;;;;24.62;35.83;101182.59;107474;1251;97835;-64
2023/09/19 08:45:43;;;;;;;12.10;2.50;;;;;;;24.89;35.77;101169.58;107519;1254;98370;-64
2023/09/19 08:48:25;;;;;;;8.90;2.30;;;;;;;25.14;35.22;101172.33;107562;1256;111836;-64
2023/09/19 08:51:07;;;;;;;9.90;3.00;;;;;;;25.41;35.03;101169.15;107523;1257;108824;-63
2023/09/19 08:53:51;;;;;;;11.30;2.70;;;;;;;25.73;33.76;101173.71;107618;1251;108489;-64
2023/09/19 08:56:22;;;;;;;14.80;3.20;;;;;;;25.91;32.96;101177.18;107491;1256;99288;-65
2023/09/19 08:58:56;;;;;;;13.00;2.30;;;;;;;26.09;32.89;101169.99;107544;1256;97912;-65
2023/09/19 09:01:28;;;;;;;9.00;2.40;;;;;;;26.32;33.24;101161.15;107515;1256;112183;-64
2023/09/19 09:03:58;;;;;;;5.30;2.40;;;;;;;26.60;33.09;101156.66;107592;1254;109627;-67
2023/09/19 09:06:29;;;;;;;8.30;3.40;;;;;;;26.82;32.59;101153.20;107568;1254;108277;-64
2023/09/19 09:08:57;;;;;;;8.70;3.50;;;;;;;26.94;32.69;101151.30;107540;1255;97973;-65
2023/09/19 09:11:27;;;;;;;15.70;4.70;;;;;;;27.13;32.61;101157.58;107492;1257;97780;-65
2023/09/19 09:13:57;;;;;;;7.60;2.40;;;;;;;27.36;32.46;101157.63;107549;1256;111371;-64
2023/09/19 09:16:26;;;;;;;6.80;2.30;;;;;;;27.59;32.15;101151.71;107526;1254;109263;-64
2023/09/19 09:18:54;;;;;;;10.10;3.30;;;;;;;27.95;31.39;101156.95;107485;1255;108293;-63
2023/09/19 09:21:26;;;;;;;10.00;3.10;;;;;;;28.54;30.71;101152.69;107581;1254;97841;-63
2023/09/19 09:23:55;;;;;;;10.50;2.50;;;;;;;29.12;29.61;101151.20;107528;1257;97835;-63
2023/09/19 09:26:43;;;;;;;12.90;3.30;;;;;;;29.33;29.54;101150.29;107538;1255;111626;-63
2023/09/19 09:29:13;;;;;;;7.90;2.70;;;;;;;29.25;28.93;101157.77;107551;1254;108997;-65
2023/09/19 09:31:48;;;;;;;11.70;2.90;;;;;;;28.82;29.43;101160.08;107571;1254;107863;-64
2023/09/19 09:34:18;;;;;;;11.80;3.00;;;;;;;28.39;29.86;101160.64;107435;1254;97826;-64
2023/09/19 09:36:48;;;;;;;15.60;4.40;;;;;;;27.96;30.95;101165.16;107537;1254;97832;-64
2023/09/19 09:39:31;;;;;;;8.70;2.70;;;;;;;27.67;31.52;101161.47;107503;1255;111246;-66
2023/09/19 09:41:59;;;;;;;8.10;2.30;;;;;;;27.46;31.77;101161.10;107509;1254;109601;-66
2023/09/19 09:44:31;;;;;;;7.20;2.40;;;;;;;27.54;32.03;101152.56;107504;1254;109234;-64
2023/09/19 09:47:27;;;;;;;14.30;3.10;;;;;;;27.70;32.20;101149.52;107630;1254;97838;-64
2023/09/19 09:50:06;;;;;;;6.60;2.80;;;;;;;27.60;32.25;101140.55;107584;1252;98017;-64
2023/09/19 09:52:44;;;;;;;9.10;2.30;;;;;;;27.48;32.55;101134.40;107474;1255;112363;-66
2023/09/19 09:55:13;;;;;;;6.10;2.10;;;;;;;27.36;32.97;101129.74;107612;1251;109919;-64
2023/09/19 09:57:41;;;;;;;9.90;2.90;;;;;;;27.33;33.29;101131.84;107602;1257;108200;-65
2023/09/19 10:02:40;;;;;;;9.90;2.40;;;;;;;27.44;33.03;101129.66;107525;1257;97850;-63
2023/09/19 10:07:51;;;;;;;17.70;2.40;;;;;;;27.31;32.90;101130.38;107337;1257;281474;-63
2023/09/19 10:10:53;;;;;;;9.70;2.60;;;;;;;27.32;32.49;101130.86;107494;1255;107881;-64
2023/09/19 10:13:29;;;;;;;10.50;2.70;;;;;;;27.35;32.10;101132.15;107429;1254;97754;-64
2023/09/19 10:15:58;;;;;;;8.80;2.40;;;;;;;27.38;32.11;101128.68;107598;1253;97886;-63
2023/09/19 10:18:32;;;;;;;18.30;2.40;;;;;;;27.37;32.15;101117.66;107537;1254;111707;-64
2023/09/19 10:21:03;;;;;;;14.90;3.50;;;;;;;27.45;32.11;101122.29;107546;1255;109302;-65
2023/09/19 10:23:34;;;;;;;10.20;2.40;;;;;;;27.71;31.44;101126.36;107460;1254;106728;-63
2023/09/19 10:26:04;;;;;;;6.30;2.00;;;;;;;27.78;30.89;101116.84;107585;1254;97859;-64
2023/09/19 10:28:35;;;;;;;6.30;2.60;;;;;;;27.87;30.82;101117.20;107474;1256;97825;-64
2023/09/19 10:31:05;;;;;;;17.80;2.70;;;;;;;28.06;30.46;101121.55;107599;1254;111661;-63
2023/09/19 10:33:37;;;;;;;15.50;2.80;;;;;;;28.06;30.42;101127.07;107568;1254;111396;-64
2023/09/19 10:36:08;;;;;;;6.50;2.20;;;;;;;28.06;30.12;101123.84;107443;1254;108552;-63
2023/09/19 10:38:40;;;;;;;12.80;2.90;;;;;;;28.03;29.57;101130.48;107517;1254;97864;-63
2023/09/19 10:41:14;;;;;;;17.80;2.60;;;;;;;27.97;29.52;101122.61;107607;1254;97921;-63
2023/09/19 10:43:44;;;;;;;;;;;;;;;27.90;29.98;101115.77;107589;1254;111415;-63
2023/09/19 10:46:13;;;;;;;8.40;2.20;;;;;;;28.17;29.42;101124.96;107588;1254;109955;-63
2023/09/19 10:48:48;;;;;;;9.00;2.40;;;;;;;28.81;28.83;101112.66;107476;1254;107059;-63
2023/09/19 10:51:24;;;;;;;16.70;3.30;;;;;;;29.43;28.43;101110.00;107421;1255;98418;-64
2023/09/19 10:53:59;;;;;;;12.20;2.20;;;;;;;30.16;27.51;101110.89;107509;1257;97733;-63
2023/09/19 10:56:32;;;;;;;16.10;2.30;;;;;;;30.48;27.56;101102.41;107549;1254;112149;-64
2023/09/19 10:59:09;;;;;;;9.40;1.90;;;;;;;31.00;27.04;101106.16;107544;1254;110122;-64
2023/09/19 11:01:52;;;;;;;10.00;2.30;;;;;;;31.30;26.41;101096.30;107472;1254;107472;-64
2023/09/19 11:04:34;;;;;;;18.90;2.70;;;;;;;31.36;26.07;101092.49;107561;1253;97960;-64
2023/09/19 11:07:11;;;;;;;8.90;2.10;;;;;;;31.07;26.39;101096.83;107565;1254;97746;-64
2023/09/19 11:09:57;;;;;;;4.30;1.90;;;;;;;30.90;26.94;101089.86;107500;1254;111079;-64
2023/09/19 11:12:50;;;;;;;5.30;2.50;;;;;;;31.23;26.87;101080.95;107589;1254;110527;-64
2023/09/19 11:15:57;;;;;;;13.70;2.40;;;;;;;31.59;26.55;101074.15;107577;1253;108317;-64
2023/09/19 11:19:01;;;;;;;9.60;2.10;;;;;;;32.12;26.01;101069.98;107436;1254;97885;-64
2023/09/19 11:21:30;;;;;;;9.60;2.30;;;;;;;32.19;25.14;101065.55;107273;1254;97820;-64
2023/09/19 11:24:19;;;;;;;8.30;2.00;;;;;;;32.16;25.08;101067.88;107579;1254;111987;-63
2023/09/19 11:26:48;;;;;;;8.70;1.60;;;;;;;32.05;24.55;101062.29;107561;1254;109369;-64
2023/09/19 11:29:26;;;;;;;14.70;5.60;;;;;;;31.64;24.82;101061.23;107541;1254;108528;-63
2023/09/19 11:31:57;;;;;;;11.00;1.80;;;;;;;31.08;25.18;101067.56;107522;1254;97856;-64